Nicole Leigh Reinauer — WCZ5696 — position and weather

sailwx.info

Track history (hours):
 
Tides and Currents Weather Stations Pressure Air Temp Water Temp Dewpoint Dewpoint Depression Visibility Wind Speed Wind Dir Waves Ship Positions

Nicole Leigh Reinauer

Owner: H A REINAUER INC, STATEN ISLAND, NY. More information available from US FCC via Universal Licensing System and Coast Guard Vessel Documentation Center.

Last reported at 2015-Aug-29 14:08 UTC. Time now 2015-Aug-31 19:51 UTC.
Position N 25°20' W 080°04'.

Length 167 m; draft 6.8 m.

Type: Tanker. MMSI: 366774330.

Date/timePositionNaut miles runAvg speedWind from/ knotsBaromVisibWave heightAir tempDewpointWater temp
2015-Aug-29 14:08N 25°20' W 080°04'6 9.5
2015-Aug-29 13:28N 25°27' W 080°02'9 9.6
2015-Aug-29 12:34N 25°35' W 080°02'1010.0
2015-Aug-29 11:33N 25°45' W 080°01'1111.1
2015-Aug-29 10:33N 25°56' W 080°02'1110.9
2015-Aug-29 09:33N 26°07' W 080°02'1010.0
2015-Aug-29 08:33N 26°17' W 080°01'10 9.9
2015-Aug-29 07:33N 26°27' W 080°00'9 9.2
2015-Aug-29 06:33N 26°36' W 079°59'10 9.0
2015-Aug-29 05:27N 26°46' W 079°59'7 8.3
2015-Aug-29 04:33N 26°54' W 079°60'10 9.9
2015-Aug-29 03:33N 27°03' W 080°02'  
2015-Aug-26 17:33N 27°01' W 079°59'1615.7
2015-Aug-26 16:33N 26°45' W 079°57'1515.3
2015-Aug-26 15:33N 26°30' W 079°57'1514.9
2015-Aug-26 14:33N 26°15' W 079°58'1514.8
2015-Aug-26 13:33N 26°00' W 080°00'1514.7
2015-Aug-26 12:33N 25°46' W 080°01'1413.7
2015-Aug-26 11:34N 25°32' W 080°01'  
2015-Aug-23 15:32N 29°56' W 090°04'  
2015-Aug-19 19:11N 29°57' W 090°01'  
Track history (hours):
 
Tides and Currents Weather Stations Pressure Air Temp Water Temp Dewpoint Dewpoint Depression Visibility Wind Speed Wind Dir Waves Ship Positions

Nicole Leigh Reinauer

Owner: H A REINAUER INC, STATEN ISLAND, NY. More information available from US FCC via Universal Licensing System and Coast Guard Vessel Documentation Center.

Last reported at 2015-Aug-29 14:08 UTC. Time now 2015-Aug-31 19:51 UTC.
Position N 25°20' W 080°04'.

Length 167 m; draft 6.8 m.

Type: Tanker. MMSI: 366774330.

Date/timePositionNaut miles runAvg speedWind from/ knotsBaromVisibWave heightAir tempDewpointWater temp
2015-Aug-29 14:08N 25°20' W 080°04'6 9.5
2015-Aug-29 13:28N 25°27' W 080°02'9 9.6
2015-Aug-29 12:34N 25°35' W 080°02'1010.0
2015-Aug-29 11:33N 25°45' W 080°01'1111.1
2015-Aug-29 10:33N 25°56' W 080°02'1110.9
2015-Aug-29 09:33N 26°07' W 080°02'1010.0
2015-Aug-29 08:33N 26°17' W 080°01'10 9.9
2015-Aug-29 07:33N 26°27' W 080°00'9 9.2
2015-Aug-29 06:33N 26°36' W 079°59'10 9.0
2015-Aug-29 05:27N 26°46' W 079°59'7 8.3
2015-Aug-29 04:33N 26°54' W 079°60'10 9.9
2015-Aug-29 03:33N 27°03' W 080°02'  
2015-Aug-26 17:33N 27°01' W 079°59'1615.7
2015-Aug-26 16:33N 26°45' W 079°57'1515.3
2015-Aug-26 15:33N 26°30' W 079°57'1514.9
2015-Aug-26 14:33N 26°15' W 079°58'1514.8
2015-Aug-26 13:33N 26°00' W 080°00'1514.7
2015-Aug-26 12:33N 25°46' W 080°01'1413.7
2015-Aug-26 11:34N 25°32' W 080°01'  
2015-Aug-23 15:32N 29°56' W 090°04'  
2015-Aug-19 19:11N 29°57' W 090°01'  

Dump ship's entire track history